createdAt,value
2022-10-09T00:00:13.990Z,10.70
2022-10-09T00:02:40.584Z,15.75
2022-10-09T00:05:07.506Z,9.82
2022-10-09T00:07:34.192Z,10.38
2022-10-09T00:10:01.046Z,8.52
2022-10-09T00:12:27.641Z,10.32
2022-10-09T00:14:54.182Z,9.82
2022-10-09T00:17:20.907Z,13.27
2022-10-09T00:19:47.527Z,12.02
2022-10-09T00:22:14.193Z,9.25
2022-10-09T00:24:42.415Z,12.20
2022-10-09T00:27:08.954Z,10.00
2022-10-09T00:29:35.567Z,12.52
2022-10-09T00:32:02.143Z,10.48
2022-10-09T00:34:28.669Z,13.35
2022-10-09T00:36:55.228Z,9.88
2022-10-09T00:39:21.800Z,11.77
2022-10-09T00:41:48.484Z,11.15
2022-10-09T00:44:47.581Z,10.90
2022-10-09T00:47:34.342Z,15.00
2022-10-09T00:50:11.685Z,12.93
2022-10-09T00:52:38.486Z,12.55
2022-10-09T00:55:07.064Z,14.48
2022-10-09T00:57:34.422Z,14.60
2022-10-09T01:00:05.981Z,12.90
2022-10-09T01:02:32.550Z,11.68
2022-10-09T01:04:59.755Z,12.48
2022-10-09T01:07:45.042Z,10.60
2022-10-09T01:10:37.841Z,10.73
2022-10-09T01:13:12.736Z,14.95
2022-10-09T01:15:51.714Z,11.77
2022-10-09T01:18:30.995Z,16.85
2022-10-09T01:21:09.344Z,11.45
2022-10-09T01:23:53.165Z,11.23
2022-10-09T01:26:29.223Z,14.07
2022-10-09T01:29:00.374Z,13.50
2022-10-09T01:31:30.747Z,11.30
2022-10-09T01:33:59.770Z,14.02
2022-10-09T01:36:29.411Z,13.60
2022-10-09T01:38:59.940Z,14.63
2022-10-09T01:41:26.574Z,15.45
2022-10-09T01:43:53.249Z,10.98
2022-10-09T01:46:22.382Z,14.73
2022-10-09T01:49:31.191Z,14.10
2022-10-09T01:52:12.817Z,12.20
2022-10-09T01:54:55.208Z,11.25
2022-10-09T01:57:54.869Z,14.98
2022-10-09T02:00:22.073Z,11.93
2022-10-09T02:02:51.213Z,15.85
2022-10-09T02:05:22.536Z,14.90
2022-10-09T02:07:49.357Z,11.02
2022-10-09T02:10:18.046Z,14.40
2022-10-09T02:12:51.291Z,16.48
2022-10-09T02:15:18.075Z,14.63
2022-10-09T02:17:49.208Z,14.05
2022-10-09T02:20:31.340Z,12.80
2022-10-09T02:23:01.721Z,13.23
2022-10-09T02:25:29.347Z,15.80
2022-10-09T02:27:56.675Z,14.48
2022-10-09T02:30:26.855Z,11.38
2022-10-09T02:32:54.517Z,13.70
2022-10-09T02:35:21.746Z,15.13
2022-10-09T02:37:49.754Z,12.38
2022-10-09T02:40:16.578Z,13.70
2022-10-09T02:42:43.336Z,14.38
2022-10-09T02:45:10.256Z,13.98
2022-10-09T02:47:37.021Z,11.05
2022-10-09T02:50:03.870Z,10.15
2022-10-09T02:52:30.455Z,12.38
2022-10-09T02:54:57.012Z,12.35
2022-10-09T02:57:23.532Z,13.40
2022-10-09T02:59:50.093Z,15.98
2022-10-09T03:02:16.825Z,11.65
2022-10-09T03:04:43.509Z,11.68
2022-10-09T03:07:10.172Z,13.80
2022-10-09T03:09:36.808Z,13.00
2022-10-09T03:12:03.513Z,12.05
2022-10-09T03:14:30.105Z,11.05
2022-10-09T03:16:57.584Z,11.43
2022-10-09T03:19:24.280Z,9.65
2022-10-09T03:21:50.882Z,10.20
2022-10-09T03:24:17.575Z,10.52
2022-10-09T03:26:44.230Z,14.10
2022-10-09T03:29:10.848Z,13.90
2022-10-09T03:31:51.789Z,12.82
2022-10-09T03:34:19.299Z,13.73
2022-10-09T03:36:45.835Z,11.30
2022-10-09T03:39:12.636Z,11.18
2022-10-09T03:41:39.181Z,12.65
2022-10-09T03:44:05.763Z,14.27
2022-10-09T03:46:32.529Z,12.98
2022-10-09T03:48:59.401Z,13.98
2022-10-09T03:51:26.616Z,15.20
2022-10-09T03:53:53.189Z,13.60
2022-10-09T03:56:19.737Z,12.13
2022-10-09T03:58:46.298Z,14.13
2022-10-09T04:01:12.971Z,11.15
2022-10-09T04:03:39.647Z,13.90
2022-10-09T04:06:07.925Z,17.08
2022-10-09T04:08:35.772Z,15.23
2022-10-09T04:11:03.589Z,16.00
2022-10-09T04:13:30.244Z,16.00
2022-10-09T04:15:57.416Z,12.82
2022-10-09T04:18:24.896Z,14.27
2022-10-09T04:20:53.549Z,13.07
2022-10-09T04:23:21.459Z,12.90
2022-10-09T04:25:48.027Z,12.63
2022-10-09T04:28:14.707Z,12.82
2022-10-09T04:30:41.439Z,16.10
2022-10-09T04:33:12.815Z,10.85
2022-10-09T04:35:46.720Z,14.68
2022-10-09T04:38:13.274Z,11.63
2022-10-09T04:40:39.782Z,9.35
2022-10-09T04:43:06.423Z,14.25
2022-10-09T04:45:33.228Z,11.43
2022-10-09T04:48:00.119Z,10.40
2022-10-09T04:50:26.681Z,9.20
2022-10-09T04:52:53.366Z,14.00
2022-10-09T04:55:20.012Z,13.88
2022-10-09T04:57:46.555Z,11.10
2022-10-09T05:00:13.875Z,13.38
2022-10-09T05:02:40.637Z,14.50
2022-10-09T05:05:07.642Z,8.93
2022-10-09T05:07:34.393Z,10.82
2022-10-09T05:10:00.967Z,13.45
2022-10-09T05:12:27.499Z,11.68
2022-10-09T05:14:54.011Z,13.43
2022-10-09T05:17:23.171Z,13.07
2022-10-09T05:19:50.232Z,14.38
2022-10-09T05:22:16.818Z,10.63
2022-10-09T05:24:43.420Z,10.95
2022-10-09T05:27:10.121Z,9.73
2022-10-09T05:29:36.796Z,13.32
2022-10-09T05:32:03.621Z,10.57
2022-10-09T05:34:30.371Z,11.50
2022-10-09T05:36:57.028Z,11.93
2022-10-09T05:39:23.652Z,13.00
2022-10-09T05:41:50.198Z,10.65
2022-10-09T05:44:16.857Z,12.38
2022-10-09T05:46:43.448Z,10.30
2022-10-09T05:49:10.404Z,11.68
2022-10-09T05:51:40.137Z,12.20
2022-10-09T05:54:06.704Z,12.37
2022-10-09T05:56:35.973Z,11.57
2022-10-09T05:59:08.510Z,13.45
2022-10-09T06:01:37.829Z,11.73
2022-10-09T06:04:06.550Z,13.88
2022-10-09T06:06:36.702Z,12.25
2022-10-09T06:09:03.962Z,12.88
2022-10-09T06:11:32.992Z,12.40
2022-10-09T06:14:02.162Z,12.40
2022-10-09T06:16:31.682Z,14.00
2022-10-09T06:18:59.271Z,11.48
2022-10-09T06:21:26.692Z,13.93
2022-10-09T06:23:56.262Z,12.73
2022-10-09T06:26:24.062Z,11.07
2022-10-09T06:28:51.203Z,10.63
2022-10-09T06:31:20.343Z,10.85
2022-10-09T06:33:48.694Z,9.63
2022-10-09T06:36:23.607Z,12.25
2022-10-09T06:38:50.740Z,12.25
2022-10-09T06:41:20.387Z,12.55
2022-10-09T06:43:52.919Z,10.13
2022-10-09T06:46:21.298Z,14.25
2022-10-09T06:48:47.931Z,12.93
2022-10-09T06:51:17.685Z,16.80
2022-10-09T06:53:50.219Z,11.73
2022-10-09T06:56:18.159Z,14.07
2022-10-09T06:58:45.323Z,11.88
2022-10-09T07:01:24.703Z,9.70
2022-10-09T07:03:57.323Z,9.63
2022-10-09T07:06:26.734Z,10.15
2022-10-09T07:08:57.694Z,11.70
2022-10-09T07:11:33.138Z,12.98
2022-10-09T07:14:02.140Z,9.45
2022-10-09T07:16:34.082Z,11.60
2022-10-09T07:19:03.663Z,8.65
2022-10-09T07:21:31.409Z,11.10
2022-10-09T07:24:00.882Z,6.55
2022-10-09T07:26:29.447Z,8.70
2022-10-09T07:28:56.284Z,10.90
2022-10-09T07:31:23.277Z,8.38
2022-10-09T07:33:51.804Z,8.93
2022-10-09T07:36:19.457Z,6.70
2022-10-09T07:38:51.034Z,7.60
2022-10-09T07:41:18.172Z,8.93
2022-10-09T07:43:45.077Z,7.65
2022-10-09T07:46:16.366Z,8.15
2022-10-09T07:48:43.320Z,6.15
2022-10-09T07:51:13.399Z,7.93
2022-10-09T07:53:40.001Z,7.32
2022-10-09T07:56:07.726Z,5.90
2022-10-09T07:58:34.332Z,7.15
2022-10-09T08:01:08.000Z,6.80
2022-10-09T08:03:35.213Z,10.40
2022-10-09T08:06:02.139Z,5.70
2022-10-09T08:08:28.848Z,8.52
2022-10-09T08:10:55.463Z,8.27
2022-10-09T08:13:22.366Z,7.60
2022-10-09T08:15:48.986Z,7.03
2022-10-09T08:18:15.832Z,9.43
2022-10-09T08:20:42.461Z,9.85
2022-10-09T08:23:09.521Z,8.02
2022-10-09T08:25:36.973Z,7.40
2022-10-09T08:28:04.829Z,7.60
2022-10-09T08:30:31.578Z,7.68
2022-10-09T08:32:58.122Z,8.15
2022-10-09T08:35:24.774Z,7.88
2022-10-09T08:37:51.754Z,5.85
2022-10-09T08:40:33.986Z,8.00
2022-10-09T08:43:04.727Z,8.55
2022-10-09T08:45:35.183Z,9.18
2022-10-09T08:48:12.348Z,7.80
2022-10-09T08:50:43.304Z,5.63
2022-10-09T08:53:38.361Z,7.00
2022-10-09T08:56:09.330Z,7.47
2022-10-09T08:58:39.193Z,6.28
2022-10-09T09:01:24.907Z,7.55
2022-10-09T09:04:22.976Z,6.45
2022-10-09T09:07:26.633Z,7.93
2022-10-09T09:10:11.956Z,6.63
2022-10-09T09:12:50.846Z,7.47
2022-10-09T09:15:26.340Z,6.20
2022-10-09T09:18:17.148Z,5.40
2022-10-09T09:23:31.239Z,8.73
2022-10-09T09:25:59.685Z,6.50
2022-10-09T09:28:34.279Z,8.88
2022-10-09T09:31:07.179Z,6.32
2022-10-09T09:34:08.855Z,5.72
2022-10-09T09:36:47.424Z,5.43
2022-10-09T09:42:07.206Z,6.35
2022-10-09T09:44:36.357Z,7.40
2022-10-09T09:47:03.209Z,8.75
2022-10-09T09:49:30.287Z,6.60
2022-10-09T09:52:00.673Z,7.32
2022-10-09T09:54:29.948Z,8.25
2022-10-09T09:57:18.281Z,7.35
2022-10-09T09:59:45.454Z,6.40
2022-10-09T10:02:17.345Z,5.97
2022-10-09T10:04:52.766Z,7.75
2022-10-09T10:07:39.919Z,5.22
2022-10-09T10:10:25.732Z,6.07
2022-10-09T10:12:52.772Z,5.25
2022-10-09T10:15:23.748Z,4.07
2022-10-09T10:18:07.331Z,4.15
2022-10-09T10:20:44.678Z,4.32
2022-10-09T10:23:34.827Z,6.75
2022-10-09T10:26:23.010Z,4.53
2022-10-09T10:28:59.524Z,4.50
2022-10-09T10:31:43.924Z,5.25
2022-10-09T10:34:24.829Z,8.25
2022-10-09T10:37:02.585Z,8.05
2022-10-09T10:39:54.265Z,6.53
2022-10-09T10:42:44.036Z,5.00
2022-10-09T10:45:15.194Z,4.70
2022-10-09T10:47:48.530Z,5.90
2022-10-09T10:50:19.483Z,4.68
2022-10-09T10:52:57.893Z,3.50
2022-10-09T10:55:39.787Z,3.58
2022-10-09T11:01:12.947Z,4.65
2022-10-09T11:04:10.072Z,5.03
2022-10-09T11:06:52.554Z,3.90
2022-10-09T11:09:32.907Z,5.00
2022-10-09T11:12:43.214Z,2.72
2022-10-09T11:15:26.610Z,5.30
2022-10-09T11:17:56.312Z,5.90
2022-10-09T11:20:50.008Z,8.68
2022-10-09T11:23:53.711Z,4.22
2022-10-09T11:26:46.248Z,3.70
2022-10-09T11:29:20.635Z,4.75
2022-10-09T11:32:02.043Z,5.15
2022-10-09T11:34:40.150Z,4.47
2022-10-09T11:37:18.006Z,3.58
2022-10-09T11:39:46.024Z,3.95
2022-10-09T11:42:16.919Z,6.57
2022-10-09T11:44:53.464Z,4.10
2022-10-09T11:47:47.095Z,2.92
2022-10-09T11:50:27.090Z,4.70
2022-10-09T11:53:05.884Z,5.47
2022-10-09T11:55:35.078Z,2.50
2022-10-09T11:58:24.614Z,3.47
2022-10-09T12:00:55.475Z,5.80
2022-10-09T12:03:33.228Z,4.55
2022-10-09T12:06:16.193Z,4.20
2022-10-09T12:09:07.547Z,3.25
2022-10-09T12:11:35.051Z,4.50
2022-10-09T12:14:06.617Z,5.38
2022-10-09T12:16:43.813Z,5.40
2022-10-09T12:19:36.374Z,2.53
2022-10-09T12:22:02.815Z,4.57
2022-10-09T12:24:42.844Z,4.00
2022-10-09T12:27:35.811Z,4.70
2022-10-09T12:30:11.730Z,3.30
2022-10-09T12:32:41.888Z,5.07
2022-10-09T12:35:17.920Z,3.65
2022-10-09T12:37:44.462Z,4.00
2022-10-09T12:40:17.356Z,3.88
2022-10-09T12:42:45.841Z,4.65
2022-10-09T12:45:18.497Z,2.63
2022-10-09T12:47:45.910Z,2.65
2022-10-09T12:50:26.929Z,5.10
2022-10-09T12:52:57.567Z,6.60
2022-10-09T12:55:30.762Z,4.05
2022-10-09T12:58:03.815Z,5.47
2022-10-09T13:00:34.024Z,3.47
2022-10-09T13:03:01.456Z,3.70
2022-10-09T13:05:40.044Z,4.40
2022-10-09T13:08:20.948Z,5.22
2022-10-09T13:10:47.557Z,2.85
2022-10-09T13:13:20.280Z,1.70
2022-10-09T13:15:57.476Z,3.97
2022-10-09T13:18:24.261Z,1.60
2022-10-09T13:21:24.882Z,1.80
2022-10-09T13:26:30.362Z,2.40
2022-10-09T13:28:59.352Z,3.22
2022-10-09T13:31:26.607Z,1.80
2022-10-09T13:33:53.104Z,5.80
2022-10-09T13:36:20.527Z,3.13
2022-10-09T13:38:47.922Z,2.92
2022-10-09T13:41:19.910Z,1.67
2022-10-09T13:43:46.773Z,1.38
2022-10-09T13:46:13.345Z,2.47
2022-10-09T13:48:40.512Z,1.77
2022-10-09T13:51:07.240Z,1.17
2022-10-09T13:53:34.266Z,2.50
2022-10-09T13:56:01.449Z,3.28
2022-10-09T13:58:28.651Z,4.10
2022-10-09T14:00:55.837Z,2.58
2022-10-09T14:03:22.346Z,2.58
2022-10-09T14:05:49.044Z,5.78
2022-10-09T14:08:15.833Z,2.53
2022-10-09T14:10:43.559Z,1.85
2022-10-09T14:13:11.174Z,4.13
2022-10-09T14:15:41.818Z,2.72
2022-10-09T14:18:09.083Z,3.40
2022-10-09T14:20:36.053Z,1.27
2022-10-09T14:23:02.713Z,2.47
2022-10-09T14:25:29.308Z,1.27
2022-10-09T14:27:55.918Z,2.67
2022-10-09T14:30:22.660Z,2.60
2022-10-09T14:32:49.502Z,3.70
2022-10-09T14:35:20.689Z,2.33
2022-10-09T14:37:48.095Z,2.38
2022-10-09T14:40:14.763Z,2.85
2022-10-09T14:42:41.572Z,1.75
2022-10-09T14:45:09.154Z,1.98
2022-10-09T14:47:36.009Z,2.08
2022-10-09T14:50:02.725Z,3.13
2022-10-09T14:52:29.356Z,2.47
2022-10-09T14:54:55.913Z,5.20
2022-10-09T14:57:22.459Z,3.13
2022-10-09T14:59:49.026Z,1.52
2022-10-09T15:02:16.436Z,2.00
2022-10-09T15:04:43.289Z,2.55
2022-10-09T15:07:09.877Z,2.55
2022-10-09T15:09:36.529Z,2.75
2022-10-09T15:12:03.197Z,2.55
2022-10-09T15:14:29.843Z,2.40
2022-10-09T15:16:56.368Z,5.10
2022-10-09T15:19:22.931Z,1.25
2022-10-09T15:21:49.564Z,2.33
2022-10-09T15:24:16.299Z,1.92
2022-10-09T15:26:43.019Z,2.83
2022-10-09T15:29:10.751Z,3.55
2022-10-09T15:31:39.880Z,3.33
2022-10-09T15:34:08.534Z,2.05
2022-10-09T15:36:38.485Z,1.45
2022-10-09T15:39:07.391Z,3.97
2022-10-09T15:41:40.112Z,3.83
2022-10-09T15:44:18.467Z,1.70
2022-10-09T15:46:46.673Z,2.88
2022-10-09T15:49:14.347Z,3.67
2022-10-09T15:51:41.268Z,2.58
2022-10-09T15:54:07.896Z,2.47
2022-10-09T15:56:38.928Z,2.40
2022-10-09T15:59:13.784Z,1.77
2022-10-09T16:01:40.387Z,2.85
2022-10-09T16:04:07.118Z,2.28
2022-10-09T16:06:33.868Z,2.83
2022-10-09T16:09:01.211Z,1.55
2022-10-09T16:11:28.075Z,2.15
2022-10-09T16:13:55.729Z,2.67
2022-10-09T16:16:26.048Z,2.38
2022-10-09T16:18:52.581Z,3.13
2022-10-09T16:21:22.157Z,2.20
2022-10-09T16:23:49.066Z,4.10
2022-10-09T16:26:18.715Z,3.30
2022-10-09T16:28:46.610Z,3.67
2022-10-09T16:31:26.107Z,2.17
2022-10-09T16:33:53.324Z,1.58
2022-10-09T16:36:20.045Z,4.05
2022-10-09T16:38:46.761Z,2.40
2022-10-09T16:41:17.914Z,5.05
2022-10-09T16:43:47.156Z,4.72
2022-10-09T16:46:22.846Z,4.78
2022-10-09T16:48:51.176Z,3.65
2022-10-09T16:51:21.094Z,4.57
2022-10-09T16:53:56.001Z,2.35
2022-10-09T16:56:25.600Z,2.05
2022-10-09T16:58:57.338Z,2.60
2022-10-09T17:01:25.226Z,5.25
2022-10-09T17:03:54.242Z,2.70
2022-10-09T17:06:23.577Z,3.70
2022-10-09T17:08:52.144Z,1.67
2022-10-09T17:11:18.748Z,2.53
2022-10-09T17:13:46.386Z,3.15
2022-10-09T17:16:18.448Z,3.38
2022-10-09T17:18:46.315Z,2.47
2022-10-09T17:21:13.430Z,4.38
2022-10-09T17:23:40.197Z,4.43
2022-10-09T17:26:15.055Z,3.88
2022-10-09T17:28:43.491Z,3.63
2022-10-09T17:31:17.246Z,3.97
2022-10-09T17:33:46.338Z,4.63
2022-10-09T17:36:15.481Z,3.70
2022-10-09T17:38:42.473Z,4.05
2022-10-09T17:41:12.058Z,4.13
2022-10-09T17:43:39.541Z,6.50
2022-10-09T17:46:07.007Z,5.30
2022-10-09T17:48:34.771Z,4.18
2022-10-09T17:51:03.789Z,4.35
2022-10-09T17:53:31.362Z,4.90
2022-10-09T17:56:03.481Z,5.30
2022-10-09T17:58:30.296Z,4.70
2022-10-09T18:00:56.948Z,4.00
2022-10-09T18:03:23.857Z,3.95
2022-10-09T18:05:51.414Z,5.38
2022-10-09T18:08:19.088Z,8.25
2022-10-09T18:10:45.771Z,6.32
2022-10-09T18:13:12.325Z,7.20
2022-10-09T18:15:41.371Z,7.07
2022-10-09T18:18:10.171Z,6.90
2022-10-09T18:20:42.999Z,5.88
2022-10-09T18:23:11.131Z,8.50
2022-10-09T18:25:44.309Z,6.65
2022-10-09T18:28:12.958Z,5.70
2022-10-09T18:30:48.616Z,7.03
2022-10-09T18:33:21.506Z,6.45
2022-10-09T18:35:54.858Z,5.78
2022-10-09T18:38:28.115Z,5.47
2022-10-09T18:41:01.432Z,8.75
2022-10-09T18:43:29.900Z,10.38
2022-10-09T18:46:05.397Z,10.75
2022-10-09T18:48:39.810Z,6.95
2022-10-09T18:51:13.365Z,8.23
2022-10-09T18:53:42.966Z,8.23
2022-10-09T18:56:12.585Z,8.68
2022-10-09T18:58:42.442Z,8.95
2022-10-09T19:01:12.832Z,12.40
2022-10-09T19:03:47.519Z,9.60
2022-10-09T19:06:20.402Z,9.20
2022-10-09T19:08:52.553Z,8.15
2022-10-09T19:11:21.224Z,8.30
2022-10-09T19:13:57.493Z,9.77
2022-10-09T19:16:45.666Z,9.82
2022-10-09T19:19:27.834Z,9.32
2022-10-09T19:21:57.802Z,10.43
2022-10-09T19:24:31.035Z,7.05
2022-10-09T19:27:13.401Z,7.63
2022-10-09T19:29:44.589Z,7.40
2022-10-09T19:32:28.845Z,6.25
2022-10-09T19:34:59.947Z,8.45
2022-10-09T19:40:33.259Z,6.97
2022-10-09T19:43:07.454Z,5.15
2022-10-09T19:45:42.406Z,8.20
2022-10-09T19:48:13.855Z,7.53
2022-10-09T19:50:43.769Z,6.68
2022-10-09T19:53:20.370Z,6.40
2022-10-09T19:55:47.508Z,6.40
2022-10-09T19:58:24.371Z,7.43
2022-10-09T20:00:51.726Z,6.55
2022-10-09T20:03:19.265Z,9.45
2022-10-09T20:05:48.579Z,8.23
2022-10-09T20:08:21.737Z,10.77
2022-10-09T20:10:49.903Z,10.10
2022-10-09T20:13:25.804Z,11.77
2022-10-09T20:15:54.285Z,10.85
2022-10-09T20:18:25.281Z,12.48
2022-10-09T20:23:37.783Z,10.70
2022-10-09T20:26:12.283Z,7.97
2022-10-09T20:28:39.932Z,12.63
2022-10-09T20:31:14.700Z,11.48
2022-10-09T20:33:42.594Z,9.55
2022-10-09T20:36:19.047Z,12.07
2022-10-09T20:38:45.669Z,9.18
2022-10-09T20:41:12.202Z,8.02
2022-10-09T20:43:40.190Z,7.20
2022-10-09T20:46:12.442Z,10.68
2022-10-09T20:48:39.564Z,6.30
2022-10-09T20:51:06.392Z,6.32
2022-10-09T20:53:33.289Z,7.38
2022-10-09T20:56:01.860Z,6.28
2022-10-09T20:58:29.144Z,6.18
2022-10-09T21:00:55.822Z,6.22
2022-10-09T21:03:22.428Z,7.35
2022-10-09T21:05:49.328Z,6.18
2022-10-09T21:08:15.895Z,8.00
2022-10-09T21:10:47.404Z,10.45
2022-10-09T21:13:14.259Z,8.15
2022-10-09T21:15:45.099Z,8.10
2022-10-09T21:18:12.462Z,13.55
2022-10-09T21:20:40.775Z,9.20
2022-10-09T21:23:08.416Z,9.30
2022-10-09T21:25:35.043Z,9.05
2022-10-09T21:28:02.588Z,11.05
2022-10-09T21:30:29.604Z,9.57
2022-10-09T21:32:56.559Z,8.05
2022-10-09T21:35:23.805Z,10.68
2022-10-09T21:37:50.762Z,12.52
2022-10-09T21:40:17.959Z,13.48
2022-10-09T21:42:44.708Z,9.93
2022-10-09T21:45:12.914Z,11.43
2022-10-09T21:47:39.544Z,13.40
2022-10-09T21:50:07.026Z,11.02
2022-10-09T21:52:33.690Z,12.32
2022-10-09T21:55:00.250Z,14.50
2022-10-09T21:57:26.789Z,9.35
2022-10-09T21:59:53.393Z,11.00
2022-10-09T22:02:20.111Z,10.02
2022-10-09T22:04:46.715Z,10.90
2022-10-09T22:07:13.338Z,9.20
2022-10-09T22:09:39.868Z,8.60
2022-10-09T22:12:06.557Z,11.05
2022-10-09T22:14:33.326Z,8.55
2022-10-09T22:16:59.802Z,8.55
2022-10-09T22:19:26.407Z,9.52
2022-10-09T22:21:52.973Z,8.93
2022-10-09T22:24:19.503Z,7.95
2022-10-09T22:26:46.087Z,8.88
2022-10-09T22:29:12.627Z,11.07
2022-10-09T22:31:39.176Z,8.25
2022-10-09T22:34:05.758Z,9.55
2022-10-09T22:36:33.659Z,11.13
2022-10-09T22:39:03.972Z,9.23
2022-10-09T22:41:31.239Z,8.90
2022-10-09T22:44:00.685Z,10.75
2022-10-09T22:46:30.420Z,8.25
2022-10-09T22:48:57.933Z,8.17
2022-10-09T22:51:27.241Z,7.43
2022-10-09T22:53:55.382Z,9.32
2022-10-09T22:56:24.132Z,7.05
2022-10-09T22:58:53.025Z,9.15
2022-10-09T23:01:30.413Z,8.60
2022-10-09T23:04:02.453Z,7.88
2022-10-09T23:06:29.532Z,7.72
2022-10-09T23:08:56.640Z,8.02
2022-10-09T23:11:24.296Z,10.15
2022-10-09T23:13:56.030Z,9.25
2022-10-09T23:16:23.216Z,7.25
2022-10-09T23:18:50.647Z,7.10
2022-10-09T23:21:20.251Z,8.30
2022-10-09T23:23:47.916Z,5.85
2022-10-09T23:26:26.880Z,8.48
2022-10-09T23:29:01.951Z,6.72
2022-10-09T23:31:29.850Z,8.40
2022-10-09T23:33:56.818Z,10.48
2022-10-09T23:36:25.892Z,7.82
2022-10-09T23:38:52.796Z,7.25
2022-10-09T23:41:22.234Z,7.15
2022-10-09T23:43:49.566Z,6.28
2022-10-09T23:46:19.070Z,8.50
2022-10-09T23:48:46.697Z,8.60
2022-10-09T23:51:14.237Z,6.85
2022-10-09T23:53:41.743Z,8.18
2022-10-09T23:56:29.235Z,9.10
2022-10-09T23:58:57.177Z,5.95
